sensor_id;sensor_type;location;lat;lon;timestamp;pressure;altitude;pressure_sealevel;temperature;humidity
49947;BME280;35839;48.662;13.300;2023-04-19T05:05:37;97598.19;;;8.56;57.29
49947;BME280;35839;48.662;13.300;2023-04-19T05:08:03;97594.94;;;8.74;58.90
49947;BME280;35839;48.662;13.300;2023-04-19T05:10:28;97589.91;;;8.92;58.44
49947;BME280;35839;48.662;13.300;2023-04-19T05:12:54;97597.31;;;8.86;57.58
49947;BME280;35839;48.662;13.300;2023-04-19T05:15:19;97586.38;;;9.12;58.33
49947;BME280;35839;48.662;13.300;2023-04-19T05:17:45;97585.19;;;8.85;57.87
49947;BME280;35839;48.662;13.300;2023-04-19T05:20:10;97586.66;;;8.59;56.43
49947;BME280;35839;48.662;13.300;2023-04-19T05:22:36;97587.16;;;8.83;58.22
49947;BME280;35839;48.662;13.300;2023-04-19T05:25:01;97584.25;;;8.46;54.80
49947;BME280;35839;48.662;13.300;2023-04-19T05:27:26;97583.44;;;8.86;53.68
49947;BME280;35839;48.662;13.300;2023-04-19T05:29:52;97586.44;;;8.81;53.87
49947;BME280;35839;48.662;13.300;2023-04-19T05:32:17;97587.28;;;8.82;53.85
49947;BME280;35839;48.662;13.300;2023-04-19T05:34:43;97580.97;;;8.84;55.14
49947;BME280;35839;48.662;13.300;2023-04-19T05:37:08;97578.78;;;8.99;54.64
49947;BME280;35839;48.662;13.300;2023-04-19T05:39:33;97574.94;;;9.13;56.52
49947;BME280;35839;48.662;13.300;2023-04-19T05:41:58;97569.44;;;9.06;54.86
49947;BME280;35839;48.662;13.300;2023-04-19T05:44:24;97566.56;;;9.19;55.00
49947;BME280;35839;48.662;13.300;2023-04-19T05:46:50;97560.94;;;9.14;54.97
49947;BME280;35839;48.662;13.300;2023-04-19T05:49:15;97564.78;;;9.00;55.08
49947;BME280;35839;48.662;13.300;2023-04-19T05:51:40;97565.19;;;9.15;54.75
49947;BME280;35839;48.662;13.300;2023-04-19T05:54:06;97570.84;;;9.49;55.23
49947;BME280;35839;48.662;13.300;2023-04-19T05:56:31;97570.53;;;9.53;55.27
49947;BME280;35839;48.662;13.300;2023-04-19T05:58:56;97562.84;;;9.70;56.51
49947;BME280;35839;48.662;13.300;2023-04-19T06:01:22;97555.69;;;9.53;54.88
49947;BME280;35839;48.662;13.300;2023-04-19T06:03:48;97555.13;;;9.01;54.40
49947;BME280;35839;48.662;13.300;2023-04-19T06:06:17;97551.19;;;9.26;55.71
49947;BME280;35839;48.662;13.300;2023-04-19T06:08:43;97557.09;;;9.38;54.98
49947;BME280;35839;48.662;13.300;2023-04-19T06:11:08;97545.50;;;9.60;55.77
49947;BME280;35839;48.662;13.300;2023-04-19T06:13:33;97551.94;;;9.85;55.65
49947;BME280;35839;48.662;13.300;2023-04-19T06:15:58;97553.00;;;9.92;56.18
49947;BME280;35839;48.662;13.300;2023-04-19T06:18:24;97543.28;;;9.75;55.25
49947;BME280;35839;48.662;13.300;2023-04-19T06:20:49;97550.19;;;9.56;54.75
49947;BME280;35839;48.662;13.300;2023-04-19T06:23:14;97545.44;;;9.89;56.31
49947;BME280;35839;48.662;13.300;2023-04-19T06:25:42;97551.22;;;10.02;56.27
49947;BME280;35839;48.662;13.300;2023-04-19T06:28:07;97546.31;;;9.80;55.08
49947;BME280;35839;48.662;13.300;2023-04-19T06:30:32;97547.78;;;9.92;56.03
49947;BME280;35839;48.662;13.300;2023-04-19T06:32:58;97546.59;;;9.77;55.54
49947;BME280;35839;48.662;13.300;2023-04-19T06:35:23;97545.00;;;10.03;56.35
49947;BME280;35839;48.662;13.300;2023-04-19T06:37:49;97533.75;;;10.21;56.54
49947;BME280;35839;48.662;13.300;2023-04-19T06:40:14;97545.44;;;9.89;55.56
49947;BME280;35839;48.662;13.300;2023-04-19T06:42:39;97535.47;;;10.12;56.04
49947;BME280;35839;48.662;13.300;2023-04-19T06:45:05;97529.63;;;10.38;56.21
49947;BME280;35839;48.662;13.300;2023-04-19T06:47:31;97531.06;;;10.50;56.88
49947;BME280;35839;48.662;13.300;2023-04-19T06:49:56;97534.97;;;9.99;56.21
49947;BME280;35839;48.662;13.300;2023-04-19T06:52:21;97535.13;;;10.25;56.74
49947;BME280;35839;48.662;13.300;2023-04-19T06:54:48;97535.97;;;10.81;56.94
49947;BME280;35839;48.662;13.300;2023-04-19T06:57:15;97535.84;;;10.82;56.66
49947;BME280;35839;48.662;13.300;2023-04-19T06:59:40;97537.56;;;10.91;57.88
49947;BME280;35839;48.662;13.300;2023-04-19T07:02:05;97533.38;;;10.99;56.22
49947;BME280;35839;48.662;13.300;2023-04-19T07:04:31;97527.53;;;10.87;57.95
49947;BME280;35839;48.662;13.300;2023-04-19T07:06:56;97531.97;;;10.86;56.70
49947;BME280;35839;48.662;13.300;2023-04-19T07:09:21;97520.31;;;11.16;57.17
49947;BME280;35839;48.662;13.300;2023-04-19T07:11:47;97523.41;;;11.02;56.83
49947;BME280;35839;48.662;13.300;2023-04-19T07:14:12;97523.19;;;11.31;58.46
49947;BME280;35839;48.662;13.300;2023-04-19T07:16:38;97522.13;;;10.88;56.84
49947;BME280;35839;48.662;13.300;2023-04-19T07:19:03;97523.72;;;11.17;58.27
49947;BME280;35839;48.662;13.300;2023-04-19T07:21:28;97523.97;;;11.06;57.61
49947;BME280;35839;48.662;13.300;2023-04-19T07:23:57;97515.84;;;10.81;57.91
49947;BME280;35839;48.662;13.300;2023-04-19T07:26:22;97520.28;;;10.99;58.60
49947;BME280;35839;48.662;13.300;2023-04-19T07:28:48;97515.81;;;10.91;57.32
49947;BME280;35839;48.662;13.300;2023-04-19T07:31:15;97517.13;;;11.13;58.47
49947;BME280;35839;48.662;13.300;2023-04-19T07:33:41;97514.53;;;11.13;58.49
49947;BME280;35839;48.662;13.300;2023-04-19T07:36:07;97517.13;;;11.13;57.49
49947;BME280;35839;48.662;13.300;2023-04-19T07:38:32;97519.63;;;11.14;57.75
49947;BME280;35839;48.662;13.300;2023-04-19T07:40:58;97514.06;;;11.35;59.42
49947;BME280;35839;48.662;13.300;2023-04-19T07:43:23;97520.50;;;11.23;59.54
49947;BME280;35839;48.662;13.300;2023-04-19T07:45:48;97514.59;;;11.03;58.04
49947;BME280;35839;48.662;13.300;2023-04-19T07:48:13;97510.56;;;10.91;57.88
49947;BME280;35839;48.662;13.300;2023-04-19T07:50:39;97509.06;;;11.24;58.71
49947;BME280;35839;48.662;13.300;2023-04-19T07:53:04;97511.94;;;11.21;57.77
49947;BME280;35839;48.662;13.300;2023-04-19T07:55:29;97514.28;;;11.24;58.42
49947;BME280;35839;48.662;13.300;2023-04-19T07:57:55;97507.25;;;11.07;57.78
49947;BME280;35839;48.662;13.300;2023-04-19T08:00:20;97512.78;;;11.04;56.04
49947;BME280;35839;48.662;13.300;2023-04-19T08:02:46;97508.97;;;10.80;55.72
49947;BME280;35839;48.662;13.300;2023-04-19T08:05:13;97507.91;;;11.09;57.36
49947;BME280;35839;48.662;13.300;2023-04-19T08:07:39;97508.28;;;11.32;55.77
49947;BME280;35839;48.662;13.300;2023-04-19T08:10:05;97503.59;;;11.35;56.73
49947;BME280;35839;48.662;13.300;2023-04-19T08:12:31;97505.75;;;11.40;56.48
49947;BME280;35839;48.662;13.300;2023-04-19T08:14:56;97506.34;;;11.16;56.07
49947;BME280;35839;48.662;13.300;2023-04-19T08:17:22;97498.75;;;11.49;56.62
49947;BME280;35839;48.662;13.300;2023-04-19T08:19:48;97504.53;;;11.52;54.82
49947;BME280;35839;48.662;13.300;2023-04-19T08:22:15;97508.06;;;11.25;54.92
49947;BME280;35839;48.662;13.300;2023-04-19T08:24:43;97496.22;;;11.65;56.40
49947;BME280;35839;48.662;13.300;2023-04-19T08:27:09;97502.03;;;11.51;55.70
49947;BME280;35839;48.662;13.300;2023-04-19T08:29:34;97500.19;;;11.69;55.70
49947;BME280;35839;48.662;13.300;2023-04-19T08:32:00;97495.28;;;11.66;55.94
49947;BME280;35839;48.662;13.300;2023-04-19T08:34:26;97496.19;;;11.57;55.32
49947;BME280;35839;48.662;13.300;2023-04-19T08:36:51;97499.38;;;11.43;55.51
49947;BME280;35839;48.662;13.300;2023-04-19T08:39:17;97494.69;;;11.80;56.35
49947;BME280;35839;48.662;13.300;2023-04-19T08:41:42;97495.84;;;11.52;55.12
49947;BME280;35839;48.662;13.300;2023-04-19T08:44:10;97494.13;;;11.43;54.31
49947;BME280;35839;48.662;13.300;2023-04-19T08:46:36;97490.16;;;11.21;49.26
49947;BME280;35839;48.662;13.300;2023-04-19T08:49:04;97496.06;;;11.41;48.90
49947;BME280;35839;48.662;13.300;2023-04-19T08:51:31;97495.56;;;11.63;50.65
49947;BME280;35839;48.662;13.300;2023-04-19T08:53:57;97485.81;;;11.47;50.49
49947;BME280;35839;48.662;13.300;2023-04-19T08:56:23;97487.06;;;11.61;50.64
49947;BME280;35839;48.662;13.300;2023-04-19T08:58:48;97484.03;;;11.30;49.06
49947;BME280;35839;48.662;13.300;2023-04-19T09:01:14;97493.56;;;11.13;48.35
49947;BME280;35839;48.662;13.300;2023-04-19T09:03:43;97485.81;;;11.29;48.60
49947;BME280;35839;48.662;13.300;2023-04-19T09:06:10;97488.53;;;11.02;44.67
49947;BME280;35839;48.662;13.300;2023-04-19T09:08:36;97487.44;;;11.48;51.28
49947;BME280;35839;48.662;13.300;2023-04-19T09:11:02;97484.03;;;11.56;51.00
49947;BME280;35839;48.662;13.300;2023-04-19T09:13:28;97477.88;;;11.65;49.96
49947;BME280;35839;48.662;13.300;2023-04-19T09:15:54;97475.44;;;11.90;50.83
49947;BME280;35839;48.662;13.300;2023-04-19T09:18:21;97476.00;;;11.84;50.89
49947;BME280;35839;48.662;13.300;2023-04-19T09:20:47;97477.97;;;11.81;52.00
49947;BME280;35839;48.662;13.300;2023-04-19T09:23:17;97471.34;;;11.43;50.27
49947;BME280;35839;48.662;13.300;2023-04-19T09:25:52;97470.78;;;11.31;50.86
49947;BME280;35839;48.662;13.300;2023-04-19T09:28:18;97469.09;;;11.30;51.16
49947;BME280;35839;48.662;13.300;2023-04-19T09:30:44;97470.88;;;11.48;52.82
49947;BME280;35839;48.662;13.300;2023-04-19T09:33:09;97470.28;;;11.54;52.07
49947;BME280;35839;48.662;13.300;2023-04-19T09:35:45;97466.25;;;11.68;52.96
49947;BME280;35839;48.662;13.300;2023-04-19T09:38:13;97462.59;;;11.60;52.80
49947;BME280;35839;48.662;13.300;2023-04-19T09:40:39;97457.41;;;11.69;52.52
49947;BME280;35839;48.662;13.300;2023-04-19T09:43:05;97460.72;;;11.71;53.27
49947;BME280;35839;48.662;13.300;2023-04-19T09:45:44;97459.59;;;11.81;52.78
49947;BME280;35839;48.662;13.300;2023-04-19T09:48:11;97457.91;;;11.46;53.25
49947;BME280;35839;48.662;13.300;2023-04-19T09:50:53;97460.28;;;11.31;52.35
49947;BME280;35839;48.662;13.300;2023-04-19T09:53:20;97459.97;;;11.60;53.06
49947;BME280;35839;48.662;13.300;2023-04-19T09:55:46;97447.59;;;11.45;53.77
49947;BME280;35839;48.662;13.300;2023-04-19T09:58:12;97456.78;;;11.49;53.24
49947;BME280;35839;48.662;13.300;2023-04-19T10:00:38;97454.72;;;11.34;53.80
49947;BME280;35839;48.662;13.300;2023-04-19T10:03:05;97446.63;;;11.46;55.97
49947;BME280;35839;48.662;13.300;2023-04-19T10:05:33;97448.16;;;11.56;56.06
49947;BME280;35839;48.662;13.300;2023-04-19T10:08:01;97453.66;;;11.45;56.47
49947;BME280;35839;48.662;13.300;2023-04-19T10:10:28;97443.00;;;11.47;56.74
49947;BME280;35839;48.662;13.300;2023-04-19T10:12:56;97451.53;;;11.49;57.25
49947;BME280;35839;48.662;13.300;2023-04-19T10:15:24;97451.09;;;11.53;56.73
49947;BME280;35839;48.662;13.300;2023-04-19T10:17:51;97457.09;;;11.46;56.56
49947;BME280;35839;48.662;13.300;2023-04-19T10:20:23;97449.84;;;11.39;55.77
49947;BME280;35839;48.662;13.300;2023-04-19T10:22:50;97453.81;;;11.44;55.81
49947;BME280;35839;48.662;13.300;2023-04-19T10:25:16;97450.41;;;11.51;56.76
49947;BME280;35839;48.662;13.300;2023-04-19T10:27:43;97453.69;;;11.27;60.29
49947;BME280;35839;48.662;13.300;2023-04-19T10:30:19;97450.59;;;11.06;59.12
49947;BME280;35839;48.662;13.300;2023-04-19T10:32:51;97450.09;;;10.84;60.34
49947;BME280;35839;48.662;13.300;2023-04-19T10:35:32;97455.81;;;10.88;59.47
49947;BME280;35839;48.662;13.300;2023-04-19T10:41:08;97443.78;;;11.39;60.37
49947;BME280;35839;48.662;13.300;2023-04-19T10:43:39;97440.78;;;11.52;60.91
49947;BME280;35839;48.662;13.300;2023-04-19T10:46:16;97443.44;;;11.60;61.50
49947;BME280;35839;48.662;13.300;2023-04-19T10:49:01;97439.41;;;11.48;61.96
49947;BME280;35839;48.662;13.300;2023-04-19T10:51:41;97435.63;;;11.68;62.75
49947;BME280;35839;48.662;13.300;2023-04-19T10:54:31;97439.19;;;11.67;64.36
49947;BME280;35839;48.662;13.300;2023-04-19T10:56:59;97432.00;;;11.69;64.24
49947;BME280;35839;48.662;13.300;2023-04-19T10:59:28;97431.38;;;11.75;64.88
49947;BME280;35839;48.662;13.300;2023-04-19T11:01:55;97425.75;;;11.62;66.63
49947;BME280;35839;48.662;13.300;2023-04-19T11:04:23;97433.97;;;11.41;66.55
49947;BME280;35839;48.662;13.300;2023-04-19T11:07:07;97423.22;;;11.52;67.57
49947;BME280;35839;48.662;13.300;2023-04-19T11:09:37;97421.09;;;11.56;66.92
49947;BME280;35839;48.662;13.300;2023-04-19T11:14:36;97420.44;;;11.80;68.33
49947;BME280;35839;48.662;13.300;2023-04-19T11:17:13;97430.16;;;11.88;69.48
49947;BME280;35839;48.662;13.300;2023-04-19T11:19:42;97429.63;;;11.84;70.62
49947;BME280;35839;48.662;13.300;2023-04-19T11:22:07;97417.47;;;11.83;69.98
49947;BME280;35839;48.662;13.300;2023-04-19T11:24:34;97419.91;;;11.76;70.63
49947;BME280;35839;48.662;13.300;2023-04-19T11:26:59;97415.84;;;11.82;72.08
49947;BME280;35839;48.662;13.300;2023-04-19T11:29:25;97420.34;;;11.98;72.64
49947;BME280;35839;48.662;13.300;2023-04-19T11:31:50;97411.34;;;11.66;73.76
49947;BME280;35839;48.662;13.300;2023-04-19T11:34:16;97413.97;;;11.66;74.82
49947;BME280;35839;48.662;13.300;2023-04-19T11:36:51;97420.91;;;11.84;75.53
49947;BME280;35839;48.662;13.300;2023-04-19T11:39:17;97417.03;;;11.88;77.14
49947;BME280;35839;48.662;13.300;2023-04-19T11:41:42;97418.34;;;11.57;80.40
49947;BME280;35839;48.662;13.300;2023-04-19T11:44:15;97413.06;;;11.49;83.13
49947;BME280;35839;48.662;13.300;2023-04-19T11:46:41;97414.63;;;11.42;80.48
49947;BME280;35839;48.662;13.300;2023-04-19T11:49:06;97415.25;;;11.62;82.40
49947;BME280;35839;48.662;13.300;2023-04-19T11:51:32;97415.13;;;11.37;84.30
49947;BME280;35839;48.662;13.300;2023-04-19T11:53:57;97415.06;;;11.29;84.67
49947;BME280;35839;48.662;13.300;2023-04-19T11:56:22;97412.78;;;11.34;86.09
49947;BME280;35839;48.662;13.300;2023-04-19T11:58:48;97407.91;;;11.39;86.17
49947;BME280;35839;48.662;13.300;2023-04-19T12:01:15;97407.91;;;11.39;86.94
49947;BME280;35839;48.662;13.300;2023-04-19T12:06:14;97405.06;;;11.59;91.02
49947;BME280;35839;48.662;13.300;2023-04-19T12:08:45;97407.72;;;11.67;91.48
49947;BME280;35839;48.662;13.300;2023-04-19T12:11:12;97401.31;;;11.88;92.01
49947;BME280;35839;48.662;13.300;2023-04-19T12:13:37;97397.91;;;11.69;92.88
49947;BME280;35839;48.662;13.300;2023-04-19T12:16:05;97395.97;;;12.06;93.71
49947;BME280;35839;48.662;13.300;2023-04-19T12:18:49;97401.41;;;12.12;95.50
49947;BME280;35839;48.662;13.300;2023-04-19T12:21:28;97392.22;;;12.16;96.74
49947;BME280;35839;48.662;13.300;2023-04-19T12:23:57;97396.84;;;12.22;99.08
49947;BME280;35839;48.662;13.300;2023-04-19T12:26:24;97393.53;;;12.20;100.00
49947;BME280;35839;48.662;13.300;2023-04-19T12:28:49;97399.31;;;12.24;100.00
49947;BME280;35839;48.662;13.300;2023-04-19T12:31:15;97391.75;;;12.29;100.00
49947;BME280;35839;48.662;13.300;2023-04-19T12:33:40;97388.63;;;12.17;100.00
49947;BME280;35839;48.662;13.300;2023-04-19T12:36:06;97387.91;;;12.07;100.00
49947;BME280;35839;48.662;13.300;2023-04-19T12:38:31;97389.84;;;11.63;100.00
49947;BME280;35839;48.662;13.300;2023-04-19T12:40:57;97394.13;;;11.98;100.00
49947;BME280;35839;48.662;13.300;2023-04-19T12:43:22;97386.44;;;12.05;100.00
49947;BME280;35839;48.662;13.300;2023-04-19T12:45:47;97389.19;;;11.34;100.00
49947;BME280;35839;48.662;13.300;2023-04-19T12:48:12;97391.09;;;11.50;100.00
49947;BME280;35839;48.662;13.300;2023-04-19T12:50:38;97394.19;;;11.20;100.00
49947;BME280;35839;48.662;13.300;2023-04-19T12:53:03;97392.69;;;10.73;100.00
49947;BME280;35839;48.662;13.300;2023-04-19T12:55:29;97383.28;;;10.17;100.00
49947;BME280;35839;48.662;13.300;2023-04-19T12:57:54;97401.56;;;10.62;100.00
49947;BME280;35839;48.662;13.300;2023-04-19T13:00:19;97391.31;;;10.87;100.00
49947;BME280;35839;48.662;13.300;2023-04-19T13:02:45;97411.69;;;10.75;100.00
49947;BME280;35839;48.662;13.300;2023-04-19T13:05:12;97414.84;;;10.61;100.00
49947;BME280;35839;48.662;13.300;2023-04-19T13:07:37;97415.84;;;10.32;100.00
49947;BME280;35839;48.662;13.300;2023-04-19T13:10:02;97422.81;;;10.13;100.00
49947;BME280;35839;48.662;13.300;2023-04-19T13:12:28;97407.88;;;10.51;100.00
49947;BME280;35839;48.662;13.300;2023-04-19T13:14:53;97402.53;;;10.79;100.00
49947;BME280;35839;48.662;13.300;2023-04-19T13:17:19;97409.66;;;10.87;100.00
49947;BME280;35839;48.662;13.300;2023-04-19T13:19:44;97407.31;;;11.02;100.00
49947;BME280;35839;48.662;13.300;2023-04-19T13:22:10;97410.41;;;11.23;100.00
49947;BME280;35839;48.662;13.300;2023-04-19T13:24:35;97411.16;;;10.89;100.00
49947;BME280;35839;48.662;13.300;2023-04-19T13:27:00;97413.09;;;11.05;100.00
49947;BME280;35839;48.662;13.300;2023-04-19T13:29:26;97407.19;;;10.85;100.00
49947;BME280;35839;48.662;13.300;2023-04-19T13:31:53;97406.47;;;11.19;100.00
49947;BME280;35839;48.662;13.300;2023-04-19T13:34:18;97404.66;;;10.93;100.00
49947;BME280;35839;48.662;13.300;2023-04-19T13:36:43;97402.03;;;10.75;100.00
49947;BME280;35839;48.662;13.300;2023-04-19T13:39:09;97402.72;;;10.78;100.00
49947;BME280;35839;48.662;13.300;2023-04-19T13:41:34;97393.09;;;10.32;100.00
49947;BME280;35839;48.662;13.300;2023-04-19T13:43:59;97392.69;;;10.09;95.99
49947;BME280;35839;48.662;13.300;2023-04-19T13:46:25;97392.44;;;10.48;100.00
49947;BME280;35839;48.662;13.300;2023-04-19T13:48:50;97386.72;;;10.17;100.00
49947;BME280;35839;48.662;13.300;2023-04-19T13:51:15;97386.22;;;10.31;100.00
49947;BME280;35839;48.662;13.300;2023-04-19T13:53:40;97384.75;;;10.47;100.00
49947;BME280;35839;48.662;13.300;2023-04-19T13:56:06;97387.31;;;10.57;100.00
49947;BME280;35839;48.662;13.300;2023-04-19T13:58:34;97384.75;;;10.47;100.00
49947;BME280;35839;48.662;13.300;2023-04-19T14:01:00;97376.13;;;10.37;100.00
49947;BME280;35839;48.662;13.300;2023-04-19T14:03:25;97373.16;;;10.31;100.00
49947;BME280;35839;48.662;13.300;2023-04-19T14:05:51;97368.72;;;10.32;95.76
49947;BME280;35839;48.662;13.300;2023-04-19T14:08:16;97359.84;;;9.97;100.00
49947;BME280;35839;48.662;13.300;2023-04-19T14:10:41;97347.94;;;9.85;100.00
49947;BME280;35839;48.662;13.300;2023-04-19T14:13:06;97343.13;;;10.08;99.71
49947;BME280;35839;48.662;13.300;2023-04-19T14:15:32;97335.19;;;10.18;99.36
49947;BME280;35839;48.662;13.300;2023-04-19T14:17:57;97325.94;;;10.05;99.80
49947;BME280;35839;48.662;13.300;2023-04-19T14:20:22;97314.53;;;10.42;100.00
49947;BME280;35839;48.662;13.300;2023-04-19T14:22:48;97320.50;;;10.34;100.00
49947;BME280;35839;48.662;13.300;2023-04-19T14:25:13;97318.25;;;10.58;100.00
49947;BME280;35839;48.662;13.300;2023-04-19T14:27:39;97323.56;;;10.66;100.00
49947;BME280;35839;48.662;13.300;2023-04-19T14:30:06;97327.94;;;10.83;100.00
49947;BME280;35839;48.662;13.300;2023-04-19T14:32:31;97330.72;;;11.08;100.00
49947;BME280;35839;48.662;13.300;2023-04-19T14:34:58;97339.19;;;11.28;100.00
49947;BME280;35839;48.662;13.300;2023-04-19T14:37:23;97333.44;;;11.24;100.00
49947;BME280;35839;48.662;13.300;2023-04-19T14:39:49;97338.75;;;11.41;100.00
49947;BME280;35839;48.662;13.300;2023-04-19T14:42:14;97340.88;;;11.71;100.00
49947;BME280;35839;48.662;13.300;2023-04-19T14:44:39;97338.59;;;11.42;100.00
49947;BME280;35839;48.662;13.300;2023-04-19T14:47:05;97339.09;;;11.37;100.00
49947;BME280;35839;48.662;13.300;2023-04-19T14:49:30;97334.16;;;11.77;100.00
49947;BME280;35839;48.662;13.300;2023-04-19T14:51:55;97337.94;;;11.40;100.00
49947;BME280;35839;48.662;13.300;2023-04-19T14:54:21;97337.75;;;11.33;100.00
49947;BME280;35839;48.662;13.300;2023-04-19T14:56:46;97351.09;;;11.48;100.00
49947;BME280;35839;48.662;13.300;2023-04-19T14:59:11;97335.91;;;11.00;100.00
49947;BME280;35839;48.662;13.300;2023-04-19T15:01:37;97341.34;;;11.06;100.00
49947;BME280;35839;48.662;13.300;2023-04-19T15:04:02;97344.22;;;11.21;97.49
49947;BME280;35839;48.662;13.300;2023-04-19T15:06:28;97349.25;;;11.41;100.00
49947;BME280;35839;48.662;13.300;2023-04-19T15:08:53;97341.88;;;11.44;100.00
49947;BME280;35839;48.662;13.300;2023-04-19T15:11:18;97348.31;;;11.50;98.73
49947;BME280;35839;48.662;13.300;2023-04-19T15:13:44;97347.47;;;11.15;100.00
49947;BME280;35839;48.662;13.300;2023-04-19T15:16:09;97353.50;;;11.07;100.00
49947;BME280;35839;48.662;13.300;2023-04-19T15:18:34;97352.19;;;11.11;100.00
49947;BME280;35839;48.662;13.300;2023-04-19T15:21:02;97347.25;;;11.08;100.00
49947;BME280;35839;48.662;13.300;2023-04-19T15:23:27;97355.22;;;10.99;100.00
49947;BME280;35839;48.662;13.300;2023-04-19T15:25:54;97357.16;;;10.96;100.00
49947;BME280;35839;48.662;13.300;2023-04-19T15:28:19;97347.31;;;11.16;100.00
49947;BME280;35839;48.662;13.300;2023-04-19T15:30:52;97353.38;;;10.91;100.00
49947;BME280;35839;48.662;13.300;2023-04-19T15:33:20;97347.66;;;10.51;100.00
49947;BME280;35839;48.662;13.300;2023-04-19T15:35:50;97347.16;;;10.74;100.00
49947;BME280;35839;48.662;13.300;2023-04-19T15:38:15;97341.44;;;10.52;100.00
49947;BME280;35839;48.662;13.300;2023-04-19T15:40:40;97348.84;;;10.75;100.00
49947;BME280;35839;48.662;13.300;2023-04-19T15:43:06;97349.25;;;10.88;100.00
49947;BME280;35839;48.662;13.300;2023-04-19T15:45:31;97345.22;;;10.76;100.00
49947;BME280;35839;48.662;13.300;2023-04-19T15:47:56;97350.16;;;10.79;100.00
49947;BME280;35839;48.662;13.300;2023-04-19T15:50:22;97357.16;;;10.96;100.00
49947;BME280;35839;48.662;13.300;2023-04-19T15:52:47;97350.91;;;10.89;100.00
49947;BME280;35839;48.662;13.300;2023-04-19T15:55:12;97352.16;;;10.85;100.00
49947;BME280;35839;48.662;13.300;2023-04-19T15:57:37;97362.22;;;10.72;100.00
49947;BME280;35839;48.662;13.300;2023-04-19T16:00:03;97363.75;;;10.11;100.00
49947;BME280;35839;48.662;13.300;2023-04-19T16:02:32;97365.84;;;10.35;100.00
49947;BME280;35839;48.662;13.300;2023-04-19T16:04:57;97364.94;;;10.44;100.00
49947;BME280;35839;48.662;13.300;2023-04-19T16:07:22;97368.25;;;10.19;100.00
49947;BME280;35839;48.662;13.300;2023-04-19T16:09:48;97369.84;;;9.84;100.00
49947;BME280;35839;48.662;13.300;2023-04-19T16:12:13;97364.06;;;10.26;100.00
49947;BME280;35839;48.662;13.300;2023-04-19T16:14:38;97362.72;;;10.22;100.00
49947;BME280;35839;48.662;13.300;2023-04-19T16:17:04;97369.31;;;10.26;100.00
49947;BME280;35839;48.662;13.300;2023-04-19T16:19:30;97369.59;;;10.23;100.00
49947;BME280;35839;48.662;13.300;2023-04-19T16:21:55;97372.41;;;10.11;100.00
49947;BME280;35839;48.662;13.300;2023-04-19T16:24:21;97378.63;;;10.38;100.00
49947;BME280;35839;48.662;13.300;2023-04-19T16:26:46;97371.13;;;10.61;100.00
49947;BME280;35839;48.662;13.300;2023-04-19T16:29:11;97369.13;;;10.09;100.00
49947;BME280;35839;48.662;13.300;2023-04-19T16:31:36;97366.72;;;9.98;100.00
49947;BME280;35839;48.662;13.300;2023-04-19T16:34:02;97356.22;;;9.80;100.00
49947;BME280;35839;48.662;13.300;2023-04-19T16:36:27;97352.16;;;9.96;100.00
49947;BME280;35839;48.662;13.300;2023-04-19T16:38:52;97363.81;;;10.01;100.00
49947;BME280;35839;48.662;13.300;2023-04-19T16:41:18;97374.41;;;10.00;100.00
49947;BME280;35839;48.662;13.300;2023-04-19T16:43:43;97380.09;;;9.67;100.00
49947;BME280;35839;48.662;13.300;2023-04-19T16:46:08;97379.69;;;10.18;100.00
49947;BME280;35839;48.662;13.300;2023-04-19T16:48:34;97385.72;;;10.18;100.00
49947;BME280;35839;48.662;13.300;2023-04-19T16:51:00;97388.78;;;10.41;100.00
49947;BME280;35839;48.662;13.300;2023-04-19T16:53:25;97363.91;;;10.27;100.00
49947;BME280;35839;48.662;13.300;2023-04-19T16:55:50;97371.34;;;10.32;100.00
49947;BME280;35839;48.662;13.300;2023-04-19T16:58:16;97374.63;;;10.34;100.00
49947;BME280;35839;48.662;13.300;2023-04-19T17:00:41;97382.94;;;10.02;100.00
49947;BME280;35839;48.662;13.300;2023-04-19T17:03:06;97377.94;;;10.08;100.00
49947;BME280;35839;48.662;13.300;2023-04-19T17:05:33;97383.63;;;9.76;100.00
49947;BME280;35839;48.662;13.300;2023-04-19T17:07:58;97383.78;;;9.27;100.00
49947;BME280;35839;48.662;13.300;2023-04-19T17:10:25;97384.69;;;9.46;97.39
49947;BME280;35839;48.662;13.300;2023-04-19T17:12:50;97386.38;;;9.47;97.58
49947;BME280;35839;48.662;13.300;2023-04-19T17:15:15;97390.06;;;9.54;97.83
49947;BME280;35839;48.662;13.300;2023-04-19T17:17:41;97391.31;;;9.78;97.50
49947;BME280;35839;48.662;13.300;2023-04-19T17:20:07;97395.50;;;9.70;97.98
49947;BME280;35839;48.662;13.300;2023-04-19T17:22:32;97392.50;;;9.65;98.62
49947;BME280;35839;48.662;13.300;2023-04-19T17:24:58;97396.44;;;9.32;99.00
49947;BME280;35839;48.662;13.300;2023-04-19T17:27:24;97395.06;;;9.38;98.90
49947;BME280;35839;48.662;13.300;2023-04-19T17:29:49;97387.91;;;9.40;98.53
49947;BME280;35839;48.662;13.300;2023-04-19T17:32:15;97379.28;;;9.57;96.07
49947;BME280;35839;48.662;13.300;2023-04-19T17:34:40;97393.44;;;9.17;93.64
49947;BME280;35839;48.662;13.300;2023-04-19T17:37:05;97392.22;;;9.21;94.07
49947;BME280;35839;48.662;13.300;2023-04-19T17:39:31;97391.69;;;8.98;94.02
49947;BME280;35839;48.662;13.300;2023-04-19T17:41:56;97391.13;;;9.14;94.07
49947;BME280;35839;48.662;13.300;2023-04-19T17:44:22;97387.09;;;9.29;94.50
49947;BME280;35839;48.662;13.300;2023-04-19T17:46:47;97393.16;;;9.20;94.54
49947;BME280;35839;48.662;13.300;2023-04-19T17:49:13;97391.16;;;9.52;94.56
49947;BME280;35839;48.662;13.300;2023-04-19T17:51:40;97394.63;;;9.80;94.66
49947;BME280;35839;48.662;13.300;2023-04-19T17:54:06;97402.91;;;9.75;94.53
49947;BME280;35839;48.662;13.300;2023-04-19T17:56:31;97408.69;;;9.69;94.71